Time;durP1;ratioP1;P1;durP2;ratioP2;P2;SDS_P1;SDS_P2;PMS_P1;PMS_P2;Temp;Humidity;BMP_temperature;BMP_pressure;BME280_temperature;BME280_humidity;BME280_pressure;Samples;Min_cycle;Max_cycle;Signal;HPM_P1;HPM_P2
2024/01/12 00:03:35;;;;;;;0.40;0.40;;;-0.60;91.00;;;;;;10409673;28;20198;-77
2024/01/12 00:08:39;;;;;;;0.40;0.40;;;-0.70;91.00;;;;;;10472615;28;20282;-79
2024/01/12 00:13:41;;;;;;;0.40;0.40;;;-0.70;91.10;;;;;;10470266;28;20737;-80
2024/01/12 00:18:44;;;;;;;0.40;0.40;;;-0.80;91.20;;;;;;10453367;28;20279;-80
2024/01/12 00:23:48;;;;;;;0.50;0.50;;;-0.90;91.60;;;;;;10438866;28;20200;-79
2024/01/12 00:28:50;;;;;;;0.40;0.40;;;-0.90;91.40;;;;;;10461535;28;20249;-80
2024/01/12 00:33:52;;;;;;;0.40;0.40;;;-1.00;91.30;;;;;;10486836;28;20710;-78
2024/01/12 00:38:56;;;;;;;0.40;0.40;;;-1.00;91.50;;;;;;10463701;28;20214;-79
2024/01/12 00:43:59;;;;;;;0.30;0.30;;;-1.00;91.60;;;;;;10446595;28;20197;-80
2024/01/12 00:49:01;;;;;;;0.40;0.40;;;-0.90;91.90;;;;;;10333654;28;3812657;-80
2024/01/12 00:54:05;;;;;;;0.40;0.40;;;-0.90;91.60;;;;;;10439032;28;20209;-80
2024/01/12 00:59:08;;;;;;;0.40;0.40;;;-0.90;91.50;;;;;;10451983;28;20721;-80
2024/01/12 01:04:10;;;;;;;0.30;0.30;;;-0.90;91.30;;;;;;10452190;28;20194;-78
2024/01/12 01:09:14;;;;;;;0.30;0.30;;;-0.90;91.10;;;;;;10449505;28;20679;-77
2024/01/12 01:14:17;;;;;;;0.37;0.37;;;-0.90;91.00;;;;;;10447704;28;20225;-78
2024/01/12 01:19:21;;;;;;;0.40;0.40;;;-0.90;91.20;;;;;;10458356;28;20213;-78
2024/01/12 01:24:26;;;;;;;0.30;0.30;;;-1.00;91.30;;;;;;10458712;28;20201;-79
2024/01/12 01:29:29;;;;;;;0.40;0.40;;;-1.00;91.30;;;;;;10445945;28;20217;-78
2024/01/12 01:34:31;;;;;;;0.40;0.40;;;-1.00;91.30;;;;;;10467399;28;20208;-80
2024/01/12 01:39:35;;;;;;;0.40;0.40;;;-1.10;91.30;;;;;;10450945;28;20635;-79
2024/01/12 01:44:37;;;;;;;0.30;0.30;;;-1.10;91.50;;;;;;10428466;28;20756;-78
2024/01/12 01:49:40;;;;;;;0.40;0.40;;;-1.00;91.40;;;;;;10439626;28;20240;-78
2024/01/12 01:54:44;;;;;;;0.40;0.40;;;-1.00;91.50;;;;;;10439372;28;20205;-79
2024/01/12 01:59:46;;;;;;;0.40;0.40;;;-1.00;91.40;;;;;;10463776;28;20732;-79
2024/01/12 02:04:53;;;;;;;0.40;0.40;;;-1.00;91.40;;;;;;10455358;28;20198;-78
2024/01/12 02:09:58;;;;;;;0.30;0.30;;;-1.10;91.40;;;;;;10479466;28;20692;-78
2024/01/12 02:15:00;;;;;;;0.40;0.40;;;-1.10;91.30;;;;;;10432298;28;20243;-78
2024/01/12 02:20:03;;;;;;;0.40;0.40;;;-1.10;91.20;;;;;;10437085;28;20224;-78
2024/01/12 02:25:10;;;;;;;0.40;0.40;;;-1.20;91.20;;;;;;10426915;28;20201;-80
2024/01/12 02:30:13;;;;;;;0.40;0.40;;;-1.20;91.30;;;;;;10455668;28;20216;-78
2024/01/12 02:35:15;;;;;;;0.40;0.40;;;-1.30;91.50;;;;;;10402242;28;20201;-79
2024/01/12 02:40:19;;;;;;;0.40;0.40;;;-1.20;91.50;;;;;;10440859;28;20554;-79
2024/01/12 02:45:21;;;;;;;0.30;0.30;;;-1.20;91.50;;;;;;10433219;28;20919;-79
2024/01/12 02:50:24;;;;;;;0.40;0.40;;;-1.30;91.30;;;;;;10449588;28;20225;-79
2024/01/12 02:55:27;;;;;;;0.50;0.50;;;-1.30;91.20;;;;;;10469900;28;20291;-78
2024/01/12 03:00:30;;;;;;;0.40;0.40;;;-1.40;91.40;;;;;;10454368;28;20638;-79
2024/01/12 03:05:33;;;;;;;0.40;0.40;;;-1.40;91.60;;;;;;10430779;28;20197;-79
2024/01/12 03:10:36;;;;;;;0.47;0.47;;;-1.30;91.60;;;;;;10468465;28;20297;-80
2024/01/12 03:15:39;;;;;;;0.47;0.47;;;-1.30;91.40;;;;;;10447493;28;20479;-78
2024/01/12 03:20:41;;;;;;;0.50;0.50;;;-1.30;91.40;;;;;;10459358;28;20219;-80
2024/01/12 03:25:45;;;;;;;0.40;0.40;;;-1.30;91.50;;;;;;10454014;28;20608;-79
2024/01/12 03:30:47;;;;;;;0.40;0.40;;;-1.30;91.30;;;;;;10430608;28;20225;-80
2024/01/12 03:35:49;;;;;;;0.40;0.40;;;-1.30;91.30;;;;;;10453961;28;20662;-80
2024/01/12 03:40:53;;;;;;;0.50;0.50;;;-1.30;91.50;;;;;;10447816;28;20710;-79
2024/01/12 03:45:55;;;;;;;0.40;0.40;;;-1.30;91.20;;;;;;10454990;28;20259;-79
2024/01/12 03:50:58;;;;;;;0.40;0.40;;;-1.30;91.30;;;;;;10445062;28;20213;-79
2024/01/12 03:56:02;;;;;;;0.50;0.50;;;-1.30;91.20;;;;;;10458232;28;20209;-78
2024/01/12 04:01:06;;;;;;;0.40;0.40;;;-1.30;90.90;;;;;;10445012;28;20682;-79
2024/01/12 04:06:09;;;;;;;0.70;0.70;;;-1.40;91.00;;;;;;10451406;28;20190;-78
2024/01/12 04:11:22;;;;;;;0.70;0.70;;;-1.40;91.30;;;;;;10458851;28;20714;-79
2024/01/12 04:16:25;;;;;;;0.60;0.60;;;-1.40;91.20;;;;;;10461060;28;20263;-78
2024/01/12 04:21:27;;;;;;;0.70;0.70;;;-1.40;91.20;;;;;;10462767;28;20228;-79
2024/01/12 04:26:31;;;;;;;0.70;0.70;;;-1.40;91.30;;;;;;10454299;28;20198;-81
2024/01/12 04:31:33;;;;;;;0.80;0.80;;;-1.50;91.20;;;;;;10448482;28;20710;-80
2024/01/12 04:36:35;;;;;;;0.80;0.80;;;-1.50;91.20;;;;;;10434905;28;20202;-79
2024/01/12 04:41:39;;;;;;;0.70;0.70;;;-1.50;91.10;;;;;;10448254;28;20214;-79
2024/01/12 04:46:42;;;;;;;0.60;0.60;;;-1.50;91.10;;;;;;10437004;28;20181;-79
2024/01/12 04:51:45;;;;;;;0.60;0.60;;;-1.50;91.10;;;;;;10451426;28;20240;-77
2024/01/12 04:56:48;;;;;;;0.70;0.70;;;-1.60;91.20;;;;;;10462755;28;20259;-79
2024/01/12 05:01:51;;;;;;;0.70;0.70;;;-1.60;91.00;;;;;;10475456;28;20271;-80
2024/01/12 05:06:53;;;;;;;0.60;0.60;;;-1.70;91.00;;;;;;10470960;28;20214;-79
2024/01/12 05:11:59;;;;;;;0.60;0.60;;;-1.60;90.90;;;;;;10468422;28;20228;-79
2024/01/12 05:17:02;;;;;;;0.60;0.60;;;-1.70;91.00;;;;;;10481570;28;20188;-80
2024/01/12 05:22:05;;;;;;;0.60;0.60;;;-1.70;91.10;;;;;;10454715;28;20428;-79
2024/01/12 05:27:09;;;;;;;0.60;0.60;;;-1.80;91.00;;;;;;10470765;28;20205;-79
2024/01/12 05:32:11;;;;;;;0.70;0.70;;;-1.80;91.00;;;;;;10424067;28;20312;-78
2024/01/12 05:37:13;;;;;;;0.70;0.70;;;-1.80;90.80;;;;;;10441620;28;20224;-78
2024/01/12 05:42:17;;;;;;;0.60;0.60;;;-1.80;90.80;;;;;;10456023;28;20290;-79
2024/01/12 05:47:19;;;;;;;0.60;0.60;;;-1.90;90.90;;;;;;10430321;28;20355;-79
2024/01/12 05:52:22;;;;;;;0.40;0.40;;;-1.90;90.90;;;;;;10439664;28;20278;-77
2024/01/12 05:57:25;;;;;;;0.60;0.60;;;-2.00;91.00;;;;;;10435088;28;20201;-77
2024/01/12 06:02:28;;;;;;;0.57;0.57;;;-2.00;91.20;;;;;;10442959;28;20208;-78
2024/01/12 06:07:30;;;;;;;0.63;0.63;;;-2.00;91.10;;;;;;10430383;28;20228;-77
2024/01/12 06:12:34;;;;;;;0.60;0.60;;;-2.00;91.00;;;;;;10466928;28;20211;-79
2024/01/12 06:17:36;;;;;;;0.60;0.60;;;-2.00;91.50;;;;;;10440485;28;20193;-77
2024/01/12 06:22:38;;;;;;;0.60;0.60;;;-2.00;91.10;;;;;;10446710;28;20702;-79
2024/01/12 06:27:42;;;;;;;0.50;0.50;;;-2.00;91.00;;;;;;10428103;28;20420;-76
2024/01/12 06:32:45;;;;;;;0.60;0.60;;;-2.00;91.00;;;;;;10426942;28;20699;-78
2024/01/12 06:37:47;;;;;;;0.40;0.40;;;-2.00;91.00;;;;;;10441666;28;20196;-79
2024/01/12 06:42:52;;;;;;;0.80;0.80;;;-2.00;91.00;;;;;;10418470;28;20218;-77
2024/01/12 06:47:55;;;;;;;0.50;0.50;;;-2.00;91.00;;;;;;10419103;28;20197;-78
2024/01/12 06:52:57;;;;;;;0.70;0.70;;;-2.00;91.00;;;;;;10447727;28;20236;-79
2024/01/12 06:58:01;;;;;;;0.70;0.70;;;-2.00;91.00;;;;;;10436947;28;20724;-78
2024/01/12 07:03:04;;;;;;;0.47;0.47;;;-2.00;91.00;;;;;;10461824;28;20212;-80
2024/01/12 07:08:07;;;;;;;0.57;0.57;;;-2.00;91.00;;;;;;10466615;28;20211;-78
2024/01/12 07:13:10;;;;;;;0.60;0.60;;;-2.10;91.10;;;;;;10465140;28;20233;-77
2024/01/12 07:18:13;;;;;;;0.30;0.30;;;-2.10;91.10;;;;;;10465354;28;20210;-78
2024/01/12 07:23:15;;;;;;;0.20;0.20;;;-2.00;91.40;;;;;;10434207;28;20502;-78
2024/01/12 07:28:19;;;;;;;0.50;0.50;;;-2.00;91.20;;;;;;10416907;28;20242;-78
2024/01/12 07:33:22;;;;;;;0.60;0.60;;;-2.00;90.80;;;;;;10462268;28;20213;-78
2024/01/12 07:38:24;;;;;;;0.40;0.40;;;-2.00;90.70;;;;;;10456084;28;20209;-79
2024/01/12 07:43:30;;;;;;;0.60;0.60;;;-2.00;90.80;;;;;;10458212;28;20185;-78
2024/01/12 07:48:32;;;;;;;0.60;0.60;;;-1.90;91.10;;;;;;10478936;28;20346;-78
2024/01/12 07:53:35;;;;;;;0.60;0.60;;;-1.90;91.10;;;;;;10456431;28;20243;-78
2024/01/12 07:58:38;;;;;;;0.60;0.60;;;-1.90;91.20;;;;;;10447973;28;20274;-77
2024/01/12 08:03:41;;;;;;;0.60;0.60;;;-1.80;91.30;;;;;;10446557;28;20185;-77
2024/01/12 08:08:44;;;;;;;0.50;0.50;;;-1.80;91.10;;;;;;10429253;28;20225;-77
2024/01/12 08:13:48;;;;;;;0.47;0.47;;;-1.80;91.00;;;;;;10438394;28;20217;-78
2024/01/12 08:18:50;;;;;;;0.40;0.40;;;-1.70;91.20;;;;;;10440131;28;20541;-77
2024/01/12 08:23:52;;;;;;;0.60;0.60;;;-1.70;91.30;;;;;;10456064;28;20247;-76
2024/01/12 08:29:01;;;;;;;0.30;0.30;;;-1.60;91.40;;;;;;10444514;28;20221;-77
2024/01/12 08:34:03;;;;;;;0.60;0.60;;;-1.60;91.60;;;;;;10442971;28;20216;-77
2024/01/12 08:39:06;;;;;;;0.60;0.60;;;-1.50;91.60;;;;;;10446165;28;20229;-78
2024/01/12 08:44:11;;;;;;;0.53;0.53;;;-1.40;91.70;;;;;;10448173;28;20201;-76
2024/01/12 08:49:13;;;;;;;0.50;0.50;;;-1.30;91.90;;;;;;10436997;28;20247;-77
2024/01/12 08:54:16;;;;;;;0.60;0.60;;;-1.20;91.80;;;;;;10438060;28;20217;-78
2024/01/12 08:59:20;;;;;;;0.50;0.50;;;-1.10;91.80;;;;;;10447056;28;20633;-79
2024/01/12 09:04:23;;;;;;;0.50;0.50;;;-1.00;91.50;;;;;;10446198;28;20205;-79
2024/01/12 09:09:25;;;;;;;0.60;0.60;;;-0.90;91.30;;;;;;10426617;28;20694;-79
2024/01/12 09:14:29;;;;;;;0.30;0.30;;;-0.90;90.90;;;;;;10449908;28;20217;-79
2024/01/12 09:19:31;;;;;;;0.40;0.40;;;-0.90;91.10;;;;;;10449908;28;20705;-78
2024/01/12 09:24:34;;;;;;;0.30;0.30;;;-0.80;91.00;;;;;;10431008;28;20256;-79
2024/01/12 09:29:38;;;;;;;0.40;0.40;;;-0.70;90.60;;;;;;10424215;28;20232;-79
2024/01/12 09:34:41;;;;;;;0.37;0.37;;;-0.70;90.60;;;;;;10445613;28;20209;-78
2024/01/12 09:39:43;;;;;;;0.30;0.30;;;-0.70;90.80;;;;;;10431995;28;20234;-80
2024/01/12 09:44:51;;;;;;;0.20;0.20;;;-0.60;90.70;;;;;;10449595;28;20203;-78
2024/01/12 09:49:55;;;;;;;0.40;0.40;;;-0.50;90.70;;;;;;10428385;28;20237;-78
2024/01/12 09:55:01;;;;;;;0.30;0.30;;;-0.50;90.70;;;;;;10432337;28;20226;-79
2024/01/12 10:00:08;;;;;;;0.40;0.40;;;-0.50;90.80;;;;;;10484435;22;20259;-80
2024/01/12 10:05:10;;;;;;;0.40;0.40;;;-0.50;90.90;;;;;;10515041;28;20192;-79
2024/01/12 10:10:14;;;;;;;0.30;0.30;;;-0.40;91.10;;;;;;10521795;28;20220;-80
2024/01/12 10:15:19;;;;;;;0.40;0.40;;;-0.30;90.80;;;;;;10499538;28;20215;-80
2024/01/12 10:20:22;;;;;;;0.30;0.30;;;-0.20;90.80;;;;;;10540255;28;20227;-80
2024/01/12 10:25:24;;;;;;;0.30;0.30;;;-0.20;91.00;;;;;;10520671;28;20188;-81
2024/01/12 10:30:31;;;;;;;0.40;0.40;;;-0.10;91.20;;;;;;10541844;28;20226;-80
2024/01/12 10:35:33;;;;;;;0.40;0.40;;;-0.10;91.10;;;;;;10544336;28;20216;-80
2024/01/12 10:40:36;;;;;;;0.40;0.40;;;0.00;91.30;;;;;;10544875;28;20223;-80
2024/01/12 10:45:44;;;;;;;0.40;0.40;;;0.10;91.00;;;;;;10518442;28;20673;-80
2024/01/12 10:50:53;;;;;;;0.50;0.50;;;0.10;91.00;;;;;;10543012;28;20228;-80
2024/01/12 10:55:58;;;;;;;0.30;0.30;;;0.20;91.10;;;;;;10523950;28;20216;-80
2024/01/12 11:01:02;;;;;;;0.40;0.40;;;0.30;91.20;;;;;;10541872;28;20288;-80
2024/01/12 11:06:07;;;;;;;0.40;0.40;;;0.30;91.20;;;;;;10539989;28;20241;-80
2024/01/12 11:11:11;;;;;;;0.40;0.40;;;0.30;91.20;;;;;;10540053;28;20219;-81
2024/01/12 11:16:15;;;;;;;0.30;0.30;;;0.40;91.10;;;;;;10539907;28;20227;-80
2024/01/12 11:21:25;;;;;;;0.30;0.30;;;0.40;91.00;;;;;;10540484;28;20211;-80
2024/01/12 11:26:27;;;;;;;0.40;0.40;;;0.50;90.90;;;;;;10520452;28;20192;-80
2024/01/12 11:31:31;;;;;;;0.40;0.40;;;0.50;90.80;;;;;;10538783;28;20219;-79
2024/01/12 11:36:37;;;;;;;0.50;0.50;;;0.50;90.70;;;;;;10538028;28;20586;-80
2024/01/12 11:41:45;;;;;;;0.40;0.40;;;0.50;90.60;;;;;;10538247;28;20685;-80
2024/01/12 11:46:50;;;;;;;0.30;0.30;;;0.50;90.70;;;;;;10537990;28;20203;-80
2024/01/12 11:52:01;;;;;;;0.30;0.30;;;0.60;90.70;;;;;;10536656;28;20223;-80
2024/01/12 11:57:04;;;;;;;0.40;0.40;;;0.60;90.90;;;;;;10536559;28;20265;-80
2024/01/12 12:02:09;;;;;;;0.30;0.30;;;0.70;90.80;;;;;;10535932;28;20728;-80
2024/01/12 12:07:12;;;;;;;0.40;0.40;;;0.80;90.80;;;;;;10517741;28;20241;-80
2024/01/12 12:12:15;;;;;;;0.40;0.40;;;0.80;90.80;;;;;;10492884;28;20261;-79
2024/01/12 12:17:19;;;;;;;0.30;0.30;;;0.90;90.90;;;;;;10531296;28;20220;-80
2024/01/12 12:22:21;;;;;;;0.30;0.30;;;0.90;90.70;;;;;;10531236;28;20216;-80
2024/01/12 12:27:24;;;;;;;0.40;0.40;;;1.00;90.80;;;;;;10529981;28;20730;-80
2024/01/12 12:32:28;;;;;;;0.30;0.30;;;1.00;90.80;;;;;;10540086;28;20220;-80
2024/01/12 12:37:30;;;;;;;0.30;0.30;;;1.10;90.60;;;;;;10523956;28;20266;-80
2024/01/12 12:42:33;;;;;;;0.30;0.30;;;1.10;90.50;;;;;;10533104;28;20231;-80
2024/01/12 12:47:37;;;;;;;0.30;0.30;;;1.10;90.40;;;;;;10520560;28;20254;-79
2024/01/12 12:52:40;;;;;;;0.40;0.40;;;1.10;90.40;;;;;;10536645;28;20200;-79
2024/01/12 12:57:43;;;;;;;0.33;0.33;;;1.10;90.60;;;;;;10525777;28;20196;-80
2024/01/12 13:02:47;;;;;;;0.40;0.40;;;1.20;90.60;;;;;;10534959;28;20749;-80
2024/01/12 13:07:50;;;;;;;0.30;0.30;;;1.30;90.90;;;;;;10523532;28;20207;-80
2024/01/12 13:12:52;;;;;;;0.30;0.30;;;1.30;90.70;;;;;;10545834;28;20548;-80
2024/01/12 13:17:56;;;;;;;0.30;0.30;;;1.40;90.60;;;;;;10547521;28;20273;-80
2024/01/12 13:22:59;;;;;;;0.40;0.40;;;1.40;90.50;;;;;;10543512;28;20669;-79
2024/01/12 13:28:01;;;;;;;0.30;0.30;;;1.40;90.50;;;;;;10531459;28;20299;-79
2024/01/12 13:33:05;;;;;;;0.30;0.30;;;1.40;90.70;;;;;;10523052;28;20208;-79
2024/01/12 13:38:07;;;;;;;0.37;0.37;;;1.40;90.90;;;;;;10515608;28;20246;-79
2024/01/12 13:43:10;;;;;;;0.20;0.20;;;1.50;91.10;;;;;;10515174;28;20715;-79
2024/01/12 13:48:13;;;;;;;0.10;0.10;;;1.50;91.10;;;;;;10511949;28;20523;-79
2024/01/12 13:53:18;;;;;;;0.33;0.33;;;1.60;91.20;;;;;;10516884;28;20207;-80
2024/01/12 13:58:20;;;;;;;0.40;0.40;;;1.60;91.50;;;;;;10512569;28;20224;-79
2024/01/12 14:03:25;;;;;;;0.23;0.23;;;1.60;91.20;;;;;;10513651;28;20218;-80
2024/01/12 14:08:28;;;;;;;0.30;0.30;;;1.60;91.20;;;;;;10525998;28;20305;-78
2024/01/12 14:13:31;;;;;;;0.40;0.40;;;1.50;91.30;;;;;;10518185;28;20212;-80
2024/01/12 14:18:35;;;;;;;0.50;0.50;;;1.50;91.30;;;;;;10531411;28;20211;-79
2024/01/12 14:23:37;;;;;;;0.20;0.20;;;1.50;91.40;;;;;;10513720;28;20191;-79
2024/01/12 14:28:40;;;;;;;0.20;0.20;;;1.50;91.40;;;;;;10510756;28;20216;-79
2024/01/12 14:33:45;;;;;;;0.50;0.50;;;1.40;91.30;;;;;;10513881;28;20281;-79
2024/01/12 14:38:49;;;;;;;0.50;0.50;;;1.40;91.50;;;;;;10527378;28;20223;-79
2024/01/12 14:43:51;;;;;;;0.43;0.43;;;1.40;91.30;;;;;;10514970;28;20192;-79
2024/01/12 14:48:55;;;;;;;0.50;0.50;;;1.40;91.50;;;;;;10510661;28;20338;-80
2024/01/12 14:53:57;;;;;;;0.50;0.50;;;1.40;91.50;;;;;;10519192;28;20208;-79
2024/01/12 14:59:02;;;;;;;0.50;0.50;;;1.40;91.60;;;;;;10524292;28;20231;-80
2024/01/12 15:04:08;;;;;;;0.40;0.40;;;1.30;91.60;;;;;;10535429;28;20188;-80
2024/01/12 15:09:11;;;;;;;0.50;0.50;;;1.30;91.70;;;;;;10514729;28;20231;-79
2024/01/12 15:14:14;;;;;;;0.20;0.20;;;1.20;91.70;;;;;;10522042;28;20680;-80
2024/01/12 15:19:18;;;;;;;0.50;0.50;;;1.20;91.80;;;;;;10513685;28;20227;-79
2024/01/12 15:24:20;;;;;;;0.30;0.30;;;1.10;91.80;;;;;;10521022;28;20188;-79
2024/01/12 15:29:23;;;;;;;0.50;0.50;;;1.10;91.90;;;;;;10510443;28;20724;-79
2024/01/12 15:34:27;;;;;;;0.30;0.30;;;1.00;91.80;;;;;;10500857;28;20232;-80
2024/01/12 15:39:29;;;;;;;0.40;0.40;;;1.00;92.00;;;;;;10489395;28;20681;-79
2024/01/12 15:44:33;;;;;;;0.40;0.40;;;0.90;92.10;;;;;;10516385;28;20203;-78
2024/01/12 15:49:38;;;;;;;0.20;0.20;;;0.90;92.10;;;;;;10515103;28;20207;-79
2024/01/12 15:54:43;;;;;;;0.60;0.60;;;0.90;92.20;;;;;;10529324;28;20212;-79
2024/01/12 15:59:47;;;;;;;0.50;0.50;;;0.90;92.30;;;;;;10524151;28;20227;-80
2024/01/12 16:04:51;;;;;;;0.10;0.10;;;0.80;92.20;;;;;;10528735;28;20600;-80
2024/01/12 16:09:53;;;;;;;0.50;0.50;;;0.80;92.30;;;;;;10539249;28;20281;-80
2024/01/12 16:14:56;;;;;;;0.40;0.40;;;0.80;92.40;;;;;;10523395;28;20223;-79
2024/01/12 16:19:59;;;;;;;0.40;0.40;;;0.80;92.40;;;;;;10536667;28;20578;-80
2024/01/12 16:25:02;;;;;;;0.20;0.20;;;0.80;92.40;;;;;;10518565;28;20262;-80
2024/01/12 16:30:05;;;;;;;0.50;0.50;;;0.80;92.40;;;;;;10534987;28;20215;-80
2024/01/12 16:35:09;;;;;;;0.30;0.30;;;0.80;92.40;;;;;;10528087;28;20723;-79
2024/01/12 16:40:12;;;;;;;0.60;0.60;;;0.80;92.60;;;;;;10537119;28;20219;-79
2024/01/12 16:45:15;;;;;;;0.50;0.50;;;0.80;92.50;;;;;;10537407;28;20192;-79
2024/01/12 16:50:18;;;;;;;0.10;0.10;;;0.80;92.60;;;;;;10528362;28;20688;-79
2024/01/12 16:55:21;;;;;;;0.40;0.40;;;0.80;92.80;;;;;;10522597;28;20694;-79
2024/01/12 17:00:23;;;;;;;0.50;0.50;;;0.80;92.70;;;;;;10525906;28;20310;-79
2024/01/12 17:05:27;;;;;;;0.50;0.50;;;0.90;92.70;;;;;;10538825;28;20199;-79
2024/01/12 17:10:29;;;;;;;0.50;0.50;;;0.90;92.50;;;;;;10541207;28;20628;-79
2024/01/12 17:15:32;;;;;;;0.47;0.47;;;0.90;92.20;;;;;;10519727;28;20219;-79
2024/01/12 17:20:35;;;;;;;0.40;0.40;;;0.90;92.60;;;;;;10539922;28;20220;-79
2024/01/12 17:25:38;;;;;;;0.43;0.43;;;0.90;92.80;;;;;;10540869;28;20586;-80
2024/01/12 17:30:40;;;;;;;0.40;0.40;;;0.90;92.70;;;;;;10523702;28;20337;-79
2024/01/12 17:35:44;;;;;;;0.63;0.63;;;0.90;92.90;;;;;;10541592;28;20710;-80
2024/01/12 17:40:46;;;;;;;0.50;0.50;;;0.90;92.90;;;;;;10539043;28;20219;-80
2024/01/12 17:45:49;;;;;;;0.37;0.37;;;1.00;93.20;;;;;;10539121;28;20184;-79
2024/01/12 17:50:52;;;;;;;0.50;0.50;;;1.00;93.10;;;;;;10536955;28;20700;-80
2024/01/12 17:55:55;;;;;;;0.60;0.60;;;1.00;93.30;;;;;;10538610;28;20265;-80
2024/01/12 18:00:57;;;;;;;0.60;0.60;;;1.00;93.30;;;;;;10539177;28;20295;-80
2024/01/12 18:06:03;;;;;;;0.57;0.57;;;1.00;93.50;;;;;;10539671;28;20692;-79
2024/01/12 18:11:06;;;;;;;0.50;0.50;;;1.10;93.30;;;;;;10534900;28;20220;-80
2024/01/12 18:16:08;;;;;;;0.60;0.60;;;1.00;93.50;;;;;;10539794;28;20746;-79
2024/01/12 18:21:12;;;;;;;0.50;0.50;;;1.00;93.50;;;;;;10540799;28;20220;-80
2024/01/12 18:26:14;;;;;;;0.60;0.60;;;1.00;93.70;;;;;;10540049;28;20196;-79
2024/01/12 18:31:19;;;;;;;0.53;0.53;;;1.00;94.00;;;;;;10523399;28;20272;-79
2024/01/12 18:36:23;;;;;;;0.67;0.67;;;1.00;93.80;;;;;;10499129;28;20224;-80
2024/01/12 18:41:25;;;;;;;0.60;0.60;;;1.10;93.80;;;;;;10539096;28;20227;-80
2024/01/12 18:46:28;;;;;;;0.60;0.60;;;1.00;93.80;;;;;;10540853;28;20192;-80
2024/01/12 18:51:32;;;;;;;0.53;0.53;;;1.00;93.90;;;;;;10523655;28;20592;-80
2024/01/12 18:56:34;;;;;;;0.50;0.50;;;1.00;94.00;;;;;;10539422;28;20238;-80
2024/01/12 19:01:37;;;;;;;0.50;0.50;;;1.00;94.00;;;;;;10539273;28;20711;-79
2024/01/12 19:06:41;;;;;;;0.10;0.10;;;0.90;94.00;;;;;;10537917;28;20238;-79
2024/01/12 19:11:43;;;;;;;0.40;0.40;;;0.90;94.20;;;;;;10539270;28;20215;-80
2024/01/12 19:16:46;;;;;;;0.40;0.40;;;0.90;94.30;;;;;;10539833;28;20220;-79
2024/01/12 19:21:49;;;;;;;0.50;0.50;;;0.90;94.50;;;;;;10546735;28;20215;-79
2024/01/12 19:26:52;;;;;;;0.30;0.30;;;1.00;94.70;;;;;;10560286;28;20199;-78
2024/01/12 19:31:54;;;;;;;0.50;0.50;;;1.00;94.40;;;;;;10547317;28;20475;-79
2024/01/12 19:36:58;;;;;;;0.40;0.40;;;1.00;94.50;;;;;;10547011;28;20215;-80
2024/01/12 19:42:00;;;;;;;0.30;0.30;;;0.90;94.50;;;;;;10543300;28;20216;-79
2024/01/12 19:47:03;;;;;;;0.50;0.50;;;0.90;94.50;;;;;;10547748;28;20730;-78
2024/01/12 19:52:07;;;;;;;0.50;0.50;;;0.90;94.60;;;;;;10531992;28;20243;-79
2024/01/12 19:57:10;;;;;;;0.50;0.50;;;0.90;94.90;;;;;;10519379;28;20219;-79
2024/01/12 20:02:12;;;;;;;0.50;0.50;;;0.90;94.80;;;;;;10534286;28;20277;-79
2024/01/12 20:07:16;;;;;;;0.60;0.60;;;1.00;94.60;;;;;;10500935;28;20204;-78
2024/01/12 20:12:19;;;;;;;0.60;0.60;;;1.00;94.70;;;;;;10515198;28;20223;-79
2024/01/12 20:17:22;;;;;;;0.50;0.50;;;1.00;94.80;;;;;;10522145;28;20227;-80
2024/01/12 20:22:27;;;;;;;0.50;0.50;;;1.00;94.80;;;;;;10528129;28;20253;-79
2024/01/12 20:27:30;;;;;;;0.43;0.43;;;1.00;94.60;;;;;;10530556;28;20188;-79
2024/01/12 20:32:32;;;;;;;0.50;0.50;;;1.00;94.50;;;;;;10536223;28;20241;-79
2024/01/12 20:37:36;;;;;;;0.30;0.30;;;1.00;94.60;;;;;;10538882;28;20908;-79
2024/01/12 20:42:38;;;;;;;0.30;0.30;;;1.00;94.60;;;;;;10545046;28;20219;-79
2024/01/12 20:47:41;;;;;;;0.40;0.40;;;1.00;94.80;;;;;;10535534;28;20188;-79
2024/01/12 20:52:45;;;;;;;0.50;0.50;;;1.00;94.70;;;;;;10506196;28;20545;-79
2024/01/12 20:57:47;;;;;;;0.50;0.50;;;1.00;94.60;;;;;;10529424;28;20246;-80
2024/01/12 21:02:50;;;;;;;0.40;0.40;;;1.00;94.70;;;;;;10537839;28;20196;-78
2024/01/12 21:07:54;;;;;;;0.40;0.40;;;1.00;94.80;;;;;;10522784;28;20688;-79
2024/01/12 21:12:56;;;;;;;0.40;0.40;;;1.00;94.50;;;;;;10525774;28;20200;-78
2024/01/12 21:17:58;;;;;;;0.50;0.50;;;0.90;94.60;;;;;;10521003;28;20265;-79
2024/01/12 21:23:02;;;;;;;0.40;0.40;;;1.00;94.60;;;;;;10516695;28;20196;-79
2024/01/12 21:28:06;;;;;;;0.40;0.40;;;0.90;94.50;;;;;;10524408;28;20220;-78
2024/01/12 21:33:09;;;;;;;0.40;0.40;;;0.90;94.60;;;;;;10531753;28;20265;-79
2024/01/12 21:38:12;;;;;;;0.40;0.40;;;0.90;94.60;;;;;;10513128;28;20220;-79
2024/01/12 21:43:15;;;;;;;0.50;0.50;;;0.90;94.70;;;;;;10530161;28;20200;-79
2024/01/12 21:48:17;;;;;;;0.50;0.50;;;0.90;94.60;;;;;;10507532;28;20562;-79
2024/01/12 21:53:21;;;;;;;0.40;0.40;;;0.90;94.70;;;;;;10507870;28;20742;-78
2024/01/12 21:58:23;;;;;;;0.47;0.47;;;0.90;94.80;;;;;;10524480;28;20219;-78
2024/01/12 22:03:25;;;;;;;0.50;0.50;;;0.90;94.80;;;;;;10525389;28;20199;-78
2024/01/12 22:08:29;;;;;;;0.40;0.40;;;1.00;94.80;;;;;;10518788;28;20216;-78
2024/01/12 22:13:32;;;;;;;0.40;0.40;;;1.00;94.60;;;;;;10528083;28;20617;-78
2024/01/12 22:18:34;;;;;;;0.40;0.40;;;0.90;94.60;;;;;;10508381;28;20235;-78
2024/01/12 22:23:38;;;;;;;0.40;0.40;;;0.90;94.60;;;;;;10524458;28;20203;-79
2024/01/12 22:28:40;;;;;;;0.30;0.30;;;0.90;94.60;;;;;;10512124;28;20220;-79
2024/01/12 22:33:42;;;;;;;0.40;0.40;;;0.90;94.50;;;;;;10525497;28;20212;-78
2024/01/12 22:38:46;;;;;;;0.40;0.40;;;0.90;94.50;;;;;;10536371;28;20223;-79
2024/01/12 22:43:48;;;;;;;0.40;0.40;;;0.80;94.60;;;;;;10521392;28;20199;-78
2024/01/12 22:48:50;;;;;;;0.50;0.50;;;0.90;94.60;;;;;;10543152;28;20719;-79
2024/01/12 22:53:54;;;;;;;0.40;0.40;;;0.90;94.70;;;;;;10543377;28;20192;-79
2024/01/12 22:58:57;;;;;;;0.30;0.30;;;0.90;94.70;;;;;;10540488;28;20657;-79
2024/01/12 23:03:59;;;;;;;0.50;0.50;;;0.90;94.40;;;;;;10539803;28;20596;-79
2024/01/12 23:09:08;;;;;;;0.60;0.60;;;0.80;94.50;;;;;;10540109;28;20211;-78
2024/01/12 23:14:10;;;;;;;0.40;0.40;;;0.80;94.40;;;;;;10520345;28;20210;-79
2024/01/12 23:19:13;;;;;;;0.40;0.40;;;0.80;94.60;;;;;;10524687;28;20219;-78
2024/01/12 23:24:17;;;;;;;0.40;0.40;;;0.80;94.50;;;;;;10541568;28;20202;-79
2024/01/12 23:29:19;;;;;;;0.40;0.40;;;0.80;94.70;;;;;;10540930;28;20257;-78
2024/01/12 23:34:21;;;;;;;0.30;0.30;;;0.80;94.60;;;;;;10543372;28;20200;-79
2024/01/12 23:39:25;;;;;;;0.40;0.40;;;0.80;94.20;;;;;;10541305;28;20211;-80
2024/01/12 23:44:27;;;;;;;0.30;0.30;;;0.80;93.90;;;;;;10500569;28;20245;-78
2024/01/12 23:49:30;;;;;;;0.40;0.40;;;0.70;93.80;;;;;;10542660;28;20591;-78
2024/01/12 23:54:34;;;;;;;0.40;0.40;;;0.70;93.90;;;;;;10541882;28;20238;-78
2024/01/12 23:59:36;;;;;;;0.40;0.40;;;0.70;93.80;;;;;;10541415;28;20224;-78
